sensor_id;sensor_type;location;lat;lon;timestamp;pressure;altitude;pressure_sealevel;temperature;humidity
56006;BME280;41888;44.696;10.522;2023-07-08T00:00:48;101071.06;;;21.67;100.00
56006;BME280;41888;44.696;10.522;2023-07-08T00:03:15;101072.38;;;21.65;100.00
56006;BME280;41888;44.696;10.522;2023-07-08T00:05:41;101070.44;;;21.55;100.00
56006;BME280;41888;44.696;10.522;2023-07-08T00:08:14;101047.78;;;21.24;100.00
56006;BME280;41888;44.696;10.522;2023-07-08T00:10:40;101043.25;;;21.03;100.00
56006;BME280;41888;44.696;10.522;2023-07-08T00:13:07;101043.72;;;20.95;100.00
56006;BME280;41888;44.696;10.522;2023-07-08T00:15:34;101047.28;;;21.00;100.00
56006;BME280;41888;44.696;10.522;2023-07-08T00:18:08;101057.03;;;21.33;100.00
56006;BME280;41888;44.696;10.522;2023-07-08T00:20:38;101054.63;;;21.05;100.00
56006;BME280;41888;44.696;10.522;2023-07-08T00:23:05;101063.41;;;21.17;100.00
56006;BME280;41888;44.696;10.522;2023-07-08T00:25:32;101051.66;;;21.06;100.00
56006;BME280;41888;44.696;10.522;2023-07-08T00:27:59;101048.44;;;21.10;100.00
56006;BME280;41888;44.696;10.522;2023-07-08T00:30:30;101040.06;;;21.11;100.00
56006;BME280;41888;44.696;10.522;2023-07-08T00:32:57;101033.50;;;21.02;100.00
56006;BME280;41888;44.696;10.522;2023-07-08T00:35:33;101031.72;;;20.81;100.00
56006;BME280;41888;44.696;10.522;2023-07-08T00:38:01;101032.78;;;20.80;100.00
56006;BME280;41888;44.696;10.522;2023-07-08T00:40:32;101031.19;;;20.84;100.00
56006;BME280;41888;44.696;10.522;2023-07-08T00:43:00;101029.16;;;20.69;100.00
56006;BME280;41888;44.696;10.522;2023-07-08T00:45:53;101017.81;;;20.67;100.00
56006;BME280;41888;44.696;10.522;2023-07-08T00:48:30;101007.72;;;20.62;100.00
56006;BME280;41888;44.696;10.522;2023-07-08T00:50:57;101024.00;;;20.67;100.00
56006;BME280;41888;44.696;10.522;2023-07-08T00:56:02;101030.06;;;20.80;100.00
56006;BME280;41888;44.696;10.522;2023-07-08T00:58:45;101025.63;;;20.69;100.00
56006;BME280;41888;44.696;10.522;2023-07-08T01:01:12;101026.41;;;20.64;100.00
56006;BME280;41888;44.696;10.522;2023-07-08T01:03:49;101027.25;;;20.38;100.00
56006;BME280;41888;44.696;10.522;2023-07-08T01:06:18;101030.41;;;20.56;100.00
56006;BME280;41888;44.696;10.522;2023-07-08T01:08:46;101037.94;;;20.54;100.00
56006;BME280;41888;44.696;10.522;2023-07-08T01:11:15;101042.44;;;20.44;100.00
56006;BME280;41888;44.696;10.522;2023-07-08T01:13:44;101045.84;;;20.34;100.00
56006;BME280;41888;44.696;10.522;2023-07-08T01:16:10;101057.06;;;20.26;100.00
56006;BME280;41888;44.696;10.522;2023-07-08T01:18:37;101051.91;;;19.98;100.00
56006;BME280;41888;44.696;10.522;2023-07-08T01:21:05;101054.03;;;19.96;100.00
56006;BME280;41888;44.696;10.522;2023-07-08T01:23:34;101058.16;;;19.81;100.00
56006;BME280;41888;44.696;10.522;2023-07-08T01:26:01;101057.47;;;19.69;100.00
56006;BME280;41888;44.696;10.522;2023-07-08T01:28:29;101046.31;;;19.83;100.00
56006;BME280;41888;44.696;10.522;2023-07-08T01:30:55;101046.66;;;19.69;100.00
56006;BME280;41888;44.696;10.522;2023-07-08T01:33:22;101035.09;;;19.74;100.00
56006;BME280;41888;44.696;10.522;2023-07-08T01:35:51;101029.53;;;19.80;100.00
56006;BME280;41888;44.696;10.522;2023-07-08T01:38:21;101035.00;;;19.86;100.00
56006;BME280;41888;44.696;10.522;2023-07-08T01:40:51;101023.25;;;19.75;100.00
56006;BME280;41888;44.696;10.522;2023-07-08T01:43:17;101023.19;;;19.92;100.00
56006;BME280;41888;44.696;10.522;2023-07-08T01:45:44;101013.56;;;20.01;100.00
56006;BME280;41888;44.696;10.522;2023-07-08T01:48:16;101015.88;;;20.14;100.00
56006;BME280;41888;44.696;10.522;2023-07-08T01:50:50;101009.09;;;20.33;100.00
56006;BME280;41888;44.696;10.522;2023-07-08T01:53:22;101002.66;;;20.39;100.00
56006;BME280;41888;44.696;10.522;2023-07-08T01:55:48;100991.69;;;20.24;100.00
56006;BME280;41888;44.696;10.522;2023-07-08T01:58:14;100989.28;;;20.28;100.00
56006;BME280;41888;44.696;10.522;2023-07-08T02:00:40;100992.00;;;20.06;100.00
56006;BME280;41888;44.696;10.522;2023-07-08T02:03:06;100997.94;;;20.03;100.00
56006;BME280;41888;44.696;10.522;2023-07-08T02:05:33;100991.34;;;20.20;100.00
56006;BME280;41888;44.696;10.522;2023-07-08T02:07:59;100988.94;;;20.19;100.00
56006;BME280;41888;44.696;10.522;2023-07-08T02:10:25;100979.84;;;20.03;100.00
56006;BME280;41888;44.696;10.522;2023-07-08T02:12:51;100987.63;;;20.00;100.00
56006;BME280;41888;44.696;10.522;2023-07-08T02:15:18;100984.81;;;19.90;100.00
56006;BME280;41888;44.696;10.522;2023-07-08T02:17:44;100973.50;;;19.93;100.00
56006;BME280;41888;44.696;10.522;2023-07-08T02:20:11;100960.41;;;20.06;100.00
56006;BME280;41888;44.696;10.522;2023-07-08T02:22:37;100968.31;;;20.13;100.00
56006;BME280;41888;44.696;10.522;2023-07-08T02:25:03;100974.88;;;19.95;100.00
56006;BME280;41888;44.696;10.522;2023-07-08T02:27:29;100979.84;;;20.03;100.00
56006;BME280;41888;44.696;10.522;2023-07-08T02:29:56;100992.97;;;19.95;100.00
56006;BME280;41888;44.696;10.522;2023-07-08T02:32:22;100986.69;;;19.89;100.00
56006;BME280;41888;44.696;10.522;2023-07-08T02:34:48;100993.59;;;19.80;100.00
56006;BME280;41888;44.696;10.522;2023-07-08T02:37:14;101001.94;;;19.78;100.00
56006;BME280;41888;44.696;10.522;2023-07-08T02:39:40;100985.00;;;19.83;100.00
56006;BME280;41888;44.696;10.522;2023-07-08T02:42:07;100985.75;;;19.78;100.00
56006;BME280;41888;44.696;10.522;2023-07-08T02:44:33;100979.59;;;19.83;100.00
56006;BME280;41888;44.696;10.522;2023-07-08T02:46:59;100972.31;;;19.83;100.00
56006;BME280;41888;44.696;10.522;2023-07-08T02:49:26;100969.06;;;19.81;100.00
56006;BME280;41888;44.696;10.522;2023-07-08T02:51:52;100964.47;;;19.82;100.00
56006;BME280;41888;44.696;10.522;2023-07-08T02:54:18;100966.00;;;20.00;100.00
56006;BME280;41888;44.696;10.522;2023-07-08T02:56:45;100950.31;;;19.97;100.00
56006;BME280;41888;44.696;10.522;2023-07-08T02:59:11;100949.69;;;19.90;100.00
56006;BME280;41888;44.696;10.522;2023-07-08T03:01:37;100950.41;;;19.80;100.00
56006;BME280;41888;44.696;10.522;2023-07-08T03:04:08;100949.59;;;19.79;100.00
56006;BME280;41888;44.696;10.522;2023-07-08T03:06:42;100956.50;;;19.70;100.00
56006;BME280;41888;44.696;10.522;2023-07-08T03:09:09;100966.72;;;19.68;100.00
56006;BME280;41888;44.696;10.522;2023-07-08T03:11:36;100958.91;;;19.67;100.00
56006;BME280;41888;44.696;10.522;2023-07-08T03:14:03;100960.03;;;19.71;100.00
56006;BME280;41888;44.696;10.522;2023-07-08T03:16:29;100967.78;;;19.67;100.00
56006;BME280;41888;44.696;10.522;2023-07-08T03:18:55;100973.00;;;19.74;100.00
56006;BME280;41888;44.696;10.522;2023-07-08T03:21:22;100970.69;;;19.83;100.00
56006;BME280;41888;44.696;10.522;2023-07-08T03:23:49;100948.56;;;19.86;100.00
56006;BME280;41888;44.696;10.522;2023-07-08T03:26:18;100956.63;;;19.80;100.00
56006;BME280;41888;44.696;10.522;2023-07-08T03:28:45;100959.28;;;19.75;100.00
56006;BME280;41888;44.696;10.522;2023-07-08T03:31:12;100972.06;;;19.85;100.00
56006;BME280;41888;44.696;10.522;2023-07-08T03:33:38;100968.50;;;19.79;100.00
56006;BME280;41888;44.696;10.522;2023-07-08T03:36:10;100966.91;;;19.83;100.00
56006;BME280;41888;44.696;10.522;2023-07-08T03:38:37;100963.53;;;19.71;100.00
56006;BME280;41888;44.696;10.522;2023-07-08T03:41:04;100960.56;;;19.51;100.00
56006;BME280;41888;44.696;10.522;2023-07-08T03:43:30;100957.22;;;19.44;100.00
56006;BME280;41888;44.696;10.522;2023-07-08T03:45:56;100957.31;;;19.49;100.00
56006;BME280;41888;44.696;10.522;2023-07-08T03:48:22;100963.59;;;19.55;100.00
56006;BME280;41888;44.696;10.522;2023-07-08T03:50:48;100963.91;;;19.58;100.00
56006;BME280;41888;44.696;10.522;2023-07-08T03:53:16;100971.53;;;19.61;100.00
56006;BME280;41888;44.696;10.522;2023-07-08T03:55:43;100969.25;;;19.75;100.00
56006;BME280;41888;44.696;10.522;2023-07-08T03:58:09;100964.25;;;19.89;100.00
56006;BME280;41888;44.696;10.522;2023-07-08T04:00:35;100973.09;;;20.06;100.00
56006;BME280;41888;44.696;10.522;2023-07-08T04:03:01;100989.69;;;20.14;100.00
56006;BME280;41888;44.696;10.522;2023-07-08T04:05:28;100984.06;;;20.21;100.00
56006;BME280;41888;44.696;10.522;2023-07-08T04:07:55;100985.69;;;20.22;100.00
56006;BME280;41888;44.696;10.522;2023-07-08T04:10:21;101000.81;;;20.18;100.00
56006;BME280;41888;44.696;10.522;2023-07-08T04:12:47;100999.81;;;20.02;100.00
56006;BME280;41888;44.696;10.522;2023-07-08T04:15:13;101016.94;;;20.13;100.00
56006;BME280;41888;44.696;10.522;2023-07-08T04:17:46;101018.78;;;20.07;100.00
56006;BME280;41888;44.696;10.522;2023-07-08T04:20:17;101034.59;;;19.99;100.00
56006;BME280;41888;44.696;10.522;2023-07-08T04:22:45;101035.69;;;19.98;100.00
56006;BME280;41888;44.696;10.522;2023-07-08T04:25:12;101041.63;;;20.00;100.00
56006;BME280;41888;44.696;10.522;2023-07-08T04:27:40;101035.63;;;19.93;100.00
56006;BME280;41888;44.696;10.522;2023-07-08T04:30:09;101042.56;;;19.89;100.00
56006;BME280;41888;44.696;10.522;2023-07-08T04:32:41;101049.63;;;19.90;100.00
56006;BME280;41888;44.696;10.522;2023-07-08T04:35:08;101056.03;;;20.05;100.00
56006;BME280;41888;44.696;10.522;2023-07-08T04:37:34;101052.13;;;20.18;100.00
56006;BME280;41888;44.696;10.522;2023-07-08T04:40:00;101054.22;;;20.33;100.00
56006;BME280;41888;44.696;10.522;2023-07-08T04:42:27;101047.66;;;20.50;100.00
56006;BME280;41888;44.696;10.522;2023-07-08T04:44:54;101047.22;;;20.63;100.00
56006;BME280;41888;44.696;10.522;2023-07-08T04:47:20;101049.28;;;20.83;100.00
56006;BME280;41888;44.696;10.522;2023-07-08T04:49:47;101057.03;;;21.01;100.00
56006;BME280;41888;44.696;10.522;2023-07-08T04:52:13;101057.56;;;21.30;100.00
56006;BME280;41888;44.696;10.522;2023-07-08T04:54:39;101050.63;;;21.49;100.00
56006;BME280;41888;44.696;10.522;2023-07-08T04:57:05;101050.25;;;21.73;100.00
56006;BME280;41888;44.696;10.522;2023-07-08T04:59:32;101044.31;;;21.81;100.00
56006;BME280;41888;44.696;10.522;2023-07-08T05:02:00;101039.72;;;21.86;100.00
56006;BME280;41888;44.696;10.522;2023-07-08T05:04:27;101042.19;;;21.93;100.00
56006;BME280;41888;44.696;10.522;2023-07-08T05:06:53;101044.88;;;21.88;100.00
56006;BME280;41888;44.696;10.522;2023-07-08T05:09:19;101030.06;;;22.01;100.00
56006;BME280;41888;44.696;10.522;2023-07-08T05:11:48;101028.75;;;22.13;100.00
56006;BME280;41888;44.696;10.522;2023-07-08T05:14:14;101009.09;;;21.86;100.00
56006;BME280;41888;44.696;10.522;2023-07-08T05:16:40;101005.19;;;21.57;100.00
56006;BME280;41888;44.696;10.522;2023-07-08T05:19:07;100995.00;;;21.27;100.00
56006;BME280;41888;44.696;10.522;2023-07-08T05:21:33;101000.47;;;21.00;100.00
56006;BME280;41888;44.696;10.522;2023-07-08T05:24:04;101027.56;;;21.05;100.00
56006;BME280;41888;44.696;10.522;2023-07-08T05:26:31;101035.47;;;21.12;100.00
56006;BME280;41888;44.696;10.522;2023-07-08T05:28:58;101049.72;;;21.02;100.00
56006;BME280;41888;44.696;10.522;2023-07-08T05:31:25;101043.63;;;20.85;100.00
56006;BME280;41888;44.696;10.522;2023-07-08T05:33:51;101046.94;;;20.92;100.00
56006;BME280;41888;44.696;10.522;2023-07-08T05:36:17;101044.31;;;21.02;100.00
56006;BME280;41888;44.696;10.522;2023-07-08T05:38:43;101030.84;;;21.07;100.00
56006;BME280;41888;44.696;10.522;2023-07-08T05:41:10;101019.97;;;21.02;100.00
56006;BME280;41888;44.696;10.522;2023-07-08T05:43:36;101009.75;;;21.09;100.00
56006;BME280;41888;44.696;10.522;2023-07-08T05:46:03;101001.72;;;21.19;100.00
56006;BME280;41888;44.696;10.522;2023-07-08T05:48:29;100994.59;;;21.50;100.00
56006;BME280;41888;44.696;10.522;2023-07-08T05:50:56;100990.25;;;21.49;100.00
56006;BME280;41888;44.696;10.522;2023-07-08T05:53:23;100998.44;;;21.64;100.00
56006;BME280;41888;44.696;10.522;2023-07-08T05:55:49;100990.97;;;21.86;100.00
56006;BME280;41888;44.696;10.522;2023-07-08T05:58:16;100992.94;;;22.11;100.00
56006;BME280;41888;44.696;10.522;2023-07-08T06:00:43;100998.94;;;23.40;100.00
56006;BME280;41888;44.696;10.522;2023-07-08T06:03:10;101004.22;;;23.90;100.00
56006;BME280;41888;44.696;10.522;2023-07-08T06:05:37;101008.47;;;24.95;100.00
56006;BME280;41888;44.696;10.522;2023-07-08T06:08:05;101017.69;;;25.51;100.00
56006;BME280;41888;44.696;10.522;2023-07-08T06:10:31;101030.81;;;25.73;100.00
56006;BME280;41888;44.696;10.522;2023-07-08T06:12:57;101029.00;;;25.87;100.00
56006;BME280;41888;44.696;10.522;2023-07-08T06:15:24;101030.88;;;25.39;100.00
56006;BME280;41888;44.696;10.522;2023-07-08T06:17:50;101024.44;;;24.67;100.00
56006;BME280;41888;44.696;10.522;2023-07-08T06:20:16;101026.47;;;24.86;100.00
56006;BME280;41888;44.696;10.522;2023-07-08T06:22:42;101032.88;;;24.32;100.00
56006;BME280;41888;44.696;10.522;2023-07-08T06:25:08;101038.41;;;24.56;100.00
56006;BME280;41888;44.696;10.522;2023-07-08T06:27:35;101034.66;;;24.80;100.00
56006;BME280;41888;44.696;10.522;2023-07-08T06:30:01;101037.22;;;25.06;100.00
56006;BME280;41888;44.696;10.522;2023-07-08T06:32:27;101031.53;;;25.02;100.00
56006;BME280;41888;44.696;10.522;2023-07-08T06:34:53;101013.09;;;24.94;100.00
56006;BME280;41888;44.696;10.522;2023-07-08T06:37:20;100997.97;;;24.78;100.00
56006;BME280;41888;44.696;10.522;2023-07-08T06:39:46;100990.22;;;24.95;100.00
56006;BME280;41888;44.696;10.522;2023-07-08T06:42:12;100982.53;;;25.02;100.00
56006;BME280;41888;44.696;10.522;2023-07-08T06:44:38;100985.41;;;25.16;100.00
56006;BME280;41888;44.696;10.522;2023-07-08T06:47:05;100981.72;;;25.02;100.00
56006;BME280;41888;44.696;10.522;2023-07-08T06:49:31;100978.75;;;25.27;100.00
56006;BME280;41888;44.696;10.522;2023-07-08T06:51:57;100984.97;;;25.56;100.00
56006;BME280;41888;44.696;10.522;2023-07-08T06:54:25;100993.41;;;25.79;100.00
56006;BME280;41888;44.696;10.522;2023-07-08T06:56:53;100995.41;;;25.92;100.00
56006;BME280;41888;44.696;10.522;2023-07-08T06:59:20;100993.75;;;26.33;100.00
56006;BME280;41888;44.696;10.522;2023-07-08T07:01:46;100993.38;;;26.40;100.00
56006;BME280;41888;44.696;10.522;2023-07-08T07:04:12;101004.84;;;26.18;100.00
56006;BME280;41888;44.696;10.522;2023-07-08T07:06:38;101020.41;;;25.99;100.00
56006;BME280;41888;44.696;10.522;2023-07-08T07:09:04;101034.44;;;26.11;100.00
56006;BME280;41888;44.696;10.522;2023-07-08T07:11:31;101039.41;;;26.46;100.00
56006;BME280;41888;44.696;10.522;2023-07-08T07:13:57;101030.47;;;26.60;100.00
56006;BME280;41888;44.696;10.522;2023-07-08T07:16:23;101020.84;;;27.00;100.00
56006;BME280;41888;44.696;10.522;2023-07-08T07:18:49;101022.69;;;27.18;100.00
56006;BME280;41888;44.696;10.522;2023-07-08T07:21:17;101032.72;;;27.22;100.00
56006;BME280;41888;44.696;10.522;2023-07-08T07:23:44;101037.88;;;27.24;100.00
56006;BME280;41888;44.696;10.522;2023-07-08T07:26:10;101027.97;;;27.28;100.00
56006;BME280;41888;44.696;10.522;2023-07-08T07:28:36;101014.75;;;27.03;100.00
56006;BME280;41888;44.696;10.522;2023-07-08T07:31:02;101006.56;;;27.03;100.00
56006;BME280;41888;44.696;10.522;2023-07-08T07:33:30;100998.41;;;26.84;100.00
56006;BME280;41888;44.696;10.522;2023-07-08T07:35:56;101005.25;;;26.49;100.00
56006;BME280;41888;44.696;10.522;2023-07-08T07:38:22;101008.50;;;26.51;100.00
56006;BME280;41888;44.696;10.522;2023-07-08T07:40:54;101008.97;;;26.72;100.00
56006;BME280;41888;44.696;10.522;2023-07-08T07:43:21;101005.72;;;26.88;100.00
56006;BME280;41888;44.696;10.522;2023-07-08T07:45:53;101007.97;;;26.68;100.00
56006;BME280;41888;44.696;10.522;2023-07-08T07:48:20;101004.41;;;26.86;100.00
56006;BME280;41888;44.696;10.522;2023-07-08T07:50:47;101012.41;;;26.64;100.00
56006;BME280;41888;44.696;10.522;2023-07-08T07:53:14;101023.84;;;26.98;100.00
56006;BME280;41888;44.696;10.522;2023-07-08T07:55:40;101026.38;;;26.76;100.00
56006;BME280;41888;44.696;10.522;2023-07-08T07:58:06;101026.16;;;26.72;100.00
56006;BME280;41888;44.696;10.522;2023-07-08T08:00:34;101029.84;;;27.00;100.00
56006;BME280;41888;44.696;10.522;2023-07-08T08:03:00;101047.41;;;27.40;99.96
56006;BME280;41888;44.696;10.522;2023-07-08T08:05:26;101045.06;;;27.20;99.45
56006;BME280;41888;44.696;10.522;2023-07-08T08:07:52;101049.22;;;27.17;99.55
56006;BME280;41888;44.696;10.522;2023-07-08T08:10:18;101052.88;;;27.26;98.43
56006;BME280;41888;44.696;10.522;2023-07-08T08:12:44;101055.72;;;27.03;100.00
56006;BME280;41888;44.696;10.522;2023-07-08T08:15:12;101061.50;;;26.82;100.00
56006;BME280;41888;44.696;10.522;2023-07-08T08:17:38;101064.25;;;26.26;100.00
56006;BME280;41888;44.696;10.522;2023-07-08T08:20:05;101052.19;;;26.32;100.00
56006;BME280;41888;44.696;10.522;2023-07-08T08:22:31;101055.53;;;26.24;100.00
56006;BME280;41888;44.696;10.522;2023-07-08T08:24:57;101056.38;;;26.43;100.00
56006;BME280;41888;44.696;10.522;2023-07-08T08:27:24;101060.41;;;26.46;100.00
56006;BME280;41888;44.696;10.522;2023-07-08T08:29:50;101061.22;;;26.84;100.00
56006;BME280;41888;44.696;10.522;2023-07-08T08:32:16;101051.81;;;27.09;100.00
56006;BME280;41888;44.696;10.522;2023-07-08T08:34:42;101064.03;;;27.44;99.20
56006;BME280;41888;44.696;10.522;2023-07-08T08:37:10;101065.06;;;27.15;97.78
56006;BME280;41888;44.696;10.522;2023-07-08T08:39:36;101074.63;;;26.99;100.00
56006;BME280;41888;44.696;10.522;2023-07-08T08:42:03;101068.34;;;27.17;99.45
56006;BME280;41888;44.696;10.522;2023-07-08T08:44:33;101061.78;;;26.81;99.34
56006;BME280;41888;44.696;10.522;2023-07-08T08:50:00;101064.41;;;26.91;100.00
56006;BME280;41888;44.696;10.522;2023-07-08T08:52:28;101047.94;;;26.96;99.68
56006;BME280;41888;44.696;10.522;2023-07-08T08:54:54;101057.31;;;27.22;97.50
56006;BME280;41888;44.696;10.522;2023-07-08T08:57:48;101072.94;;;26.66;99.25
56006;BME280;41888;44.696;10.522;2023-07-08T09:00:21;101071.59;;;26.82;98.09
56006;BME280;41888;44.696;10.522;2023-07-08T09:02:57;101071.91;;;26.99;98.09
56006;BME280;41888;44.696;10.522;2023-07-08T09:05:25;101058.44;;;26.89;94.65
56006;BME280;41888;44.696;10.522;2023-07-08T09:07:59;101064.56;;;27.13;92.14
56006;BME280;41888;44.696;10.522;2023-07-08T09:13:31;101065.00;;;26.51;89.28
56006;BME280;41888;44.696;10.522;2023-07-08T09:16:05;101080.41;;;26.41;92.25
56006;BME280;41888;44.696;10.522;2023-07-08T09:18:43;101078.25;;;26.76;87.98
56006;BME280;41888;44.696;10.522;2023-07-08T09:21:24;101075.66;;;27.03;85.93
56006;BME280;41888;44.696;10.522;2023-07-08T09:23:56;101074.00;;;27.21;85.42
56006;BME280;41888;44.696;10.522;2023-07-08T09:26:28;101076.53;;;27.17;83.24
56006;BME280;41888;44.696;10.522;2023-07-08T09:28:56;101072.00;;;26.94;83.57
56006;BME280;41888;44.696;10.522;2023-07-08T09:31:23;101068.44;;;27.26;81.41
56006;BME280;41888;44.696;10.522;2023-07-08T09:36:43;101057.06;;;27.51;76.43
56006;BME280;41888;44.696;10.522;2023-07-08T09:39:20;101061.66;;;27.97;75.79
56006;BME280;41888;44.696;10.522;2023-07-08T09:41:48;101059.69;;;27.56;75.09
56006;BME280;41888;44.696;10.522;2023-07-08T09:44:25;101057.94;;;27.47;76.61
56006;BME280;41888;44.696;10.522;2023-07-08T09:46:59;101066.06;;;27.93;76.26
56006;BME280;41888;44.696;10.522;2023-07-08T09:49:34;101060.53;;;27.84;73.48
56006;BME280;41888;44.696;10.522;2023-07-08T09:52:02;101052.41;;;27.65;71.99
56006;BME280;41888;44.696;10.522;2023-07-08T09:54:28;101054.09;;;28.02;73.94
56006;BME280;41888;44.696;10.522;2023-07-08T09:57:04;101053.22;;;27.52;70.40
56006;BME280;41888;44.696;10.522;2023-07-08T09:59:42;101050.69;;;27.56;71.71
56006;BME280;41888;44.696;10.522;2023-07-08T10:02:32;101047.41;;;27.40;73.11
56006;BME280;41888;44.696;10.522;2023-07-08T10:05:16;101043.59;;;27.55;69.72
56006;BME280;41888;44.696;10.522;2023-07-08T10:07:45;101049.09;;;27.68;71.75
56006;BME280;41888;44.696;10.522;2023-07-08T10:10:17;101051.78;;;28.09;69.26
56006;BME280;41888;44.696;10.522;2023-07-08T10:12:56;101044.59;;;28.00;69.05
56006;BME280;41888;44.696;10.522;2023-07-08T10:15:32;101057.47;;;27.99;66.23
56006;BME280;41888;44.696;10.522;2023-07-08T10:17:59;101058.38;;;28.22;62.28
56006;BME280;41888;44.696;10.522;2023-07-08T10:20:35;101061.94;;;28.23;54.55
56006;BME280;41888;44.696;10.522;2023-07-08T10:26:42;101044.75;;;28.44;52.24
56006;BME280;41888;44.696;10.522;2023-07-08T10:29:46;101044.22;;;28.78;51.38
56006;BME280;41888;44.696;10.522;2023-07-08T10:35:22;101037.25;;;28.94;52.29
56006;BME280;41888;44.696;10.522;2023-07-08T10:40:58;101034.38;;;29.00;55.06
56006;BME280;41888;44.696;10.522;2023-07-08T10:49:37;101013.31;;;28.42;55.84
56006;BME280;41888;44.696;10.522;2023-07-08T11:00:40;101017.56;;;28.70;57.23
56006;BME280;41888;44.696;10.522;2023-07-08T11:06:02;101022.38;;;28.65;57.27
56006;BME280;41888;44.696;10.522;2023-07-08T11:08:43;101010.53;;;28.78;57.45
56006;BME280;41888;44.696;10.522;2023-07-08T11:13:58;101003.09;;;28.92;56.13
56006;BME280;41888;44.696;10.522;2023-07-08T11:16:35;101009.28;;;29.37;56.59
56006;BME280;41888;44.696;10.522;2023-07-08T11:22:12;100997.47;;;29.28;57.22
56006;BME280;41888;44.696;10.522;2023-07-08T11:24:50;100992.25;;;29.18;55.26
56006;BME280;41888;44.696;10.522;2023-07-08T11:27:27;100990.78;;;29.12;56.25
56006;BME280;41888;44.696;10.522;2023-07-08T11:30:06;100991.13;;;29.19;54.81
56006;BME280;41888;44.696;10.522;2023-07-08T11:32:39;100982.84;;;29.02;52.12
56006;BME280;41888;44.696;10.522;2023-07-08T11:35:13;100985.69;;;29.27;53.86
56006;BME280;41888;44.696;10.522;2023-07-08T11:37:43;100986.09;;;29.43;53.47
56006;BME280;41888;44.696;10.522;2023-07-08T11:40:20;100984.31;;;29.95;52.17
56006;BME280;41888;44.696;10.522;2023-07-08T11:42:52;100982.41;;;30.13;52.56
56006;BME280;41888;44.696;10.522;2023-07-08T11:45:30;100979.13;;;29.94;51.54
56006;BME280;41888;44.696;10.522;2023-07-08T11:50:37;100976.41;;;29.94;53.38
56006;BME280;41888;44.696;10.522;2023-07-08T11:55:44;100979.47;;;30.01;52.35
56006;BME280;41888;44.696;10.522;2023-07-08T11:58:25;100966.09;;;30.34;51.25
56006;BME280;41888;44.696;10.522;2023-07-08T12:01:19;100979.47;;;29.92;51.11
56006;BME280;41888;44.696;10.522;2023-07-08T12:03:49;100968.81;;;30.25;51.10
56006;BME280;41888;44.696;10.522;2023-07-08T12:08:59;100963.16;;;30.65;48.07
56006;BME280;41888;44.696;10.522;2023-07-08T12:11:33;100965.53;;;30.92;49.52
56006;BME280;41888;44.696;10.522;2023-07-08T12:14:02;100971.03;;;31.38;48.95
56006;BME280;41888;44.696;10.522;2023-07-08T12:16:30;100964.91;;;31.33;47.82
56006;BME280;41888;44.696;10.522;2023-07-08T12:18:59;100965.66;;;30.95;48.86
56006;BME280;41888;44.696;10.522;2023-07-08T12:21:27;100968.28;;;30.92;46.95
56006;BME280;41888;44.696;10.522;2023-07-08T12:23:54;100964.00;;;30.48;47.72
56006;BME280;41888;44.696;10.522;2023-07-08T12:26:22;100967.03;;;30.63;48.22
56006;BME280;41888;44.696;10.522;2023-07-08T12:28:50;100955.53;;;30.87;47.62
56006;BME280;41888;44.696;10.522;2023-07-08T12:31:19;100959.28;;;31.29;48.43
56006;BME280;41888;44.696;10.522;2023-07-08T12:33:46;100965.44;;;31.56;45.15
56006;BME280;41888;44.696;10.522;2023-07-08T12:36:27;100965.81;;;31.45;43.39
56006;BME280;41888;44.696;10.522;2023-07-08T12:38:55;100958.34;;;31.17;44.10
56006;BME280;41888;44.696;10.522;2023-07-08T12:41:27;100957.44;;;30.95;44.24
56006;BME280;41888;44.696;10.522;2023-07-08T12:43:56;100952.28;;;30.85;44.63
56006;BME280;41888;44.696;10.522;2023-07-08T12:46:23;100954.50;;;31.00;44.82
56006;BME280;41888;44.696;10.522;2023-07-08T12:48:49;100944.81;;;30.94;43.89
56006;BME280;41888;44.696;10.522;2023-07-08T12:51:23;100950.16;;;31.08;44.90
56006;BME280;41888;44.696;10.522;2023-07-08T12:53:51;100951.44;;;30.93;45.02
56006;BME280;41888;44.696;10.522;2023-07-08T12:56:20;100952.81;;;30.61;45.20
56006;BME280;41888;44.696;10.522;2023-07-08T12:58:52;100947.94;;;30.84;44.05
56006;BME280;41888;44.696;10.522;2023-07-08T13:01:25;100945.47;;;31.09;43.58
56006;BME280;41888;44.696;10.522;2023-07-08T13:03:58;100943.91;;;31.28;43.30
56006;BME280;41888;44.696;10.522;2023-07-08T13:06:28;100943.81;;;31.45;43.78
56006;BME280;41888;44.696;10.522;2023-07-08T13:11:41;100945.53;;;31.29;43.66
56006;BME280;41888;44.696;10.522;2023-07-08T13:14:08;100946.34;;;31.30;42.90
56006;BME280;41888;44.696;10.522;2023-07-08T13:16:35;100945.22;;;31.60;42.52
56006;BME280;41888;44.696;10.522;2023-07-08T13:19:02;100945.31;;;31.93;41.93
56006;BME280;41888;44.696;10.522;2023-07-08T13:21:29;100936.41;;;31.37;42.74
56006;BME280;41888;44.696;10.522;2023-07-08T13:23:58;100949.81;;;31.01;41.32
56006;BME280;41888;44.696;10.522;2023-07-08T13:26:29;100938.78;;;31.48;42.58
56006;BME280;41888;44.696;10.522;2023-07-08T13:29:09;100932.94;;;31.20;42.03
56006;BME280;41888;44.696;10.522;2023-07-08T13:31:38;100935.47;;;31.63;41.48
56006;BME280;41888;44.696;10.522;2023-07-08T13:34:09;100933.53;;;31.34;41.96
56006;BME280;41888;44.696;10.522;2023-07-08T13:36:39;100937.97;;;31.47;41.90